createdAt,value
2023-08-12T00:00:38.976Z,2.10
2023-08-12T00:03:05.562Z,2.10
2023-08-12T00:05:32.021Z,2.22
2023-08-12T00:07:58.703Z,2.20
2023-08-12T00:10:25.355Z,2.15
2023-08-12T00:12:52.302Z,2.00
2023-08-12T00:15:19.156Z,1.90
2023-08-12T00:17:46.765Z,2.00
2023-08-12T00:20:13.267Z,2.20
2023-08-12T00:22:39.763Z,1.90
2023-08-12T00:25:06.512Z,2.00
2023-08-12T00:27:32.943Z,1.95
2023-08-12T00:29:59.485Z,1.77
2023-08-12T00:32:26.134Z,2.00
2023-08-12T00:34:52.526Z,1.90
2023-08-12T00:37:19.059Z,2.13
2023-08-12T00:39:47.981Z,2.20
2023-08-12T00:42:15.818Z,2.20
2023-08-12T00:44:42.304Z,1.98
2023-08-12T00:47:09.586Z,2.00
2023-08-12T00:49:37.396Z,2.00
2023-08-12T00:52:03.810Z,1.98
2023-08-12T00:54:30.273Z,1.65
2023-08-12T00:56:59.173Z,2.20
2023-08-12T00:59:25.628Z,1.70
2023-08-12T01:01:52.100Z,2.20
2023-08-12T01:04:18.596Z,1.60
2023-08-12T01:06:45.607Z,2.10
2023-08-12T01:09:12.069Z,1.98
2023-08-12T01:11:38.569Z,1.90
2023-08-12T01:14:05.031Z,2.00
2023-08-12T01:16:31.449Z,2.00
2023-08-12T01:18:57.972Z,1.70
2023-08-12T01:21:24.440Z,2.05
2023-08-12T01:23:50.892Z,1.83
2023-08-12T01:26:17.391Z,2.10
2023-08-12T01:28:43.957Z,2.30
2023-08-12T01:31:10.759Z,2.42
2023-08-12T01:33:37.237Z,2.00
2023-08-12T01:36:04.433Z,2.13
2023-08-12T01:38:30.850Z,2.30
2023-08-12T01:40:58.240Z,1.95
2023-08-12T01:43:24.732Z,2.10
2023-08-12T01:45:51.612Z,2.13
2023-08-12T01:48:18.072Z,1.90
2023-08-12T01:50:44.615Z,2.10
2023-08-12T01:53:11.229Z,2.10
2023-08-12T01:55:37.856Z,2.17
2023-08-12T01:58:04.305Z,1.90
2023-08-12T02:00:30.734Z,2.03
2023-08-12T02:02:57.629Z,2.00
2023-08-12T02:05:24.145Z,2.20
2023-08-12T02:07:50.922Z,2.22
2023-08-12T02:10:17.418Z,2.30
2023-08-12T02:12:44.019Z,2.45
2023-08-12T02:15:10.458Z,2.13
2023-08-12T02:17:37.010Z,2.35
2023-08-12T02:20:05.273Z,2.33
2023-08-12T02:22:33.920Z,2.50
2023-08-12T02:25:00.614Z,2.50
2023-08-12T02:27:27.053Z,2.60
2023-08-12T02:29:53.718Z,2.17
2023-08-12T02:32:20.515Z,2.10
2023-08-12T02:34:47.154Z,2.50
2023-08-12T02:37:13.837Z,2.35
2023-08-12T02:39:40.459Z,2.10
2023-08-12T02:42:06.908Z,2.40
2023-08-12T02:44:34.441Z,2.42
2023-08-12T02:47:01.366Z,2.50
2023-08-12T02:49:28.382Z,2.08
2023-08-12T02:51:55.863Z,2.30
2023-08-12T02:54:22.381Z,2.22
2023-08-12T02:56:49.042Z,2.15
2023-08-12T02:59:15.686Z,2.10
2023-08-12T03:01:42.140Z,2.20
2023-08-12T03:04:08.606Z,1.98
2023-08-12T03:06:35.021Z,2.20
2023-08-12T03:09:01.855Z,2.30
2023-08-12T03:11:28.360Z,2.15
2023-08-12T03:13:55.821Z,1.90
2023-08-12T03:16:24.329Z,2.10
2023-08-12T03:18:51.170Z,2.30
2023-08-12T03:21:17.551Z,2.25
2023-08-12T03:23:44.186Z,2.35
2023-08-12T03:26:10.690Z,2.35
2023-08-12T03:28:38.300Z,2.53
2023-08-12T03:31:04.997Z,2.40
2023-08-12T03:33:32.232Z,2.20
2023-08-12T03:35:58.812Z,2.10
2023-08-12T03:38:25.288Z,2.10
2023-08-12T03:40:51.697Z,2.00
2023-08-12T03:43:18.171Z,2.00
2023-08-12T03:45:45.372Z,2.10
2023-08-12T03:48:11.839Z,2.38
2023-08-12T03:50:38.292Z,2.22
2023-08-12T03:53:04.784Z,2.33
2023-08-12T03:55:31.817Z,2.35
2023-08-12T03:57:58.248Z,2.08
2023-08-12T04:00:24.714Z,2.15
2023-08-12T04:02:51.268Z,1.83
2023-08-12T04:05:17.987Z,2.30
2023-08-12T04:07:44.538Z,2.65
2023-08-12T04:10:12.412Z,2.22
2023-08-12T04:12:38.845Z,2.53
2023-08-12T04:15:05.336Z,2.40
2023-08-12T04:17:31.885Z,2.13
2023-08-12T04:19:58.379Z,2.35
2023-08-12T04:22:24.819Z,2.20
2023-08-12T04:24:51.218Z,2.50
2023-08-12T04:27:17.845Z,2.40
2023-08-12T04:29:44.234Z,2.05
2023-08-12T04:32:10.780Z,2.50
2023-08-12T04:34:37.261Z,3.00
2023-08-12T04:37:03.717Z,2.50
2023-08-12T04:39:30.246Z,2.63
2023-08-12T04:41:56.674Z,2.95
2023-08-12T04:44:23.292Z,2.30
2023-08-12T04:46:50.103Z,2.38
2023-08-12T04:49:16.532Z,2.40
2023-08-12T04:51:42.991Z,2.92
2023-08-12T04:54:09.410Z,2.25
2023-08-12T04:56:36.513Z,2.30
2023-08-12T04:59:03.002Z,2.80
2023-08-12T05:01:32.218Z,2.20
2023-08-12T05:03:58.717Z,2.28
2023-08-12T05:06:25.360Z,2.50
2023-08-12T05:08:52.023Z,2.67
2023-08-12T05:11:18.710Z,2.88
2023-08-12T05:13:47.784Z,2.45
2023-08-12T05:16:15.672Z,2.90
2023-08-12T05:18:42.444Z,3.13
2023-08-12T05:21:08.866Z,3.15
2023-08-12T05:23:36.255Z,3.10
2023-08-12T05:26:02.740Z,3.35
2023-08-12T05:28:29.273Z,2.78
2023-08-12T05:30:55.686Z,2.95
2023-08-12T05:33:22.202Z,3.28
2023-08-12T05:35:48.837Z,2.80
2023-08-12T05:38:15.551Z,3.53
2023-08-12T05:40:41.971Z,2.95
2023-08-12T05:43:08.765Z,2.80
2023-08-12T05:45:35.267Z,3.20
2023-08-12T05:48:02.162Z,3.30
2023-08-12T05:50:28.817Z,2.80
2023-08-12T05:52:55.517Z,3.67
2023-08-12T05:55:25.059Z,3.20
2023-08-12T05:57:51.563Z,3.17
2023-08-12T06:00:18.059Z,2.53
2023-08-12T06:02:53.126Z,2.95
2023-08-12T06:05:20.000Z,3.28
2023-08-12T06:07:46.806Z,3.38
2023-08-12T06:10:13.917Z,2.90
2023-08-12T06:12:42.567Z,2.85
2023-08-12T06:15:12.022Z,2.90
2023-08-12T06:17:38.683Z,2.60
2023-08-12T06:20:05.561Z,3.15
2023-08-12T06:22:40.328Z,2.92
2023-08-12T06:25:07.013Z,2.95
2023-08-12T06:27:33.404Z,2.70
2023-08-12T06:30:00.145Z,2.67
2023-08-12T06:32:26.593Z,2.80
2023-08-12T06:34:53.056Z,2.25
2023-08-12T06:37:19.592Z,2.47
2023-08-12T06:39:46.003Z,2.35
2023-08-12T06:42:12.502Z,2.65
2023-08-12T06:44:39.103Z,2.90
2023-08-12T06:47:05.757Z,3.20
2023-08-12T06:49:32.284Z,2.53
2023-08-12T06:51:59.158Z,2.85
2023-08-12T06:54:25.541Z,2.80
2023-08-12T06:56:52.122Z,3.30
2023-08-12T06:59:18.506Z,2.65
2023-08-12T07:01:45.245Z,3.20
2023-08-12T07:04:11.797Z,2.78
2023-08-12T07:06:38.179Z,3.13
2023-08-12T07:09:04.803Z,2.97
2023-08-12T07:11:31.282Z,3.85
2023-08-12T07:13:57.851Z,3.50
2023-08-12T07:16:24.718Z,3.58
2023-08-12T07:18:51.114Z,3.30
2023-08-12T07:21:17.662Z,3.05
2023-08-12T07:23:51.420Z,3.33
2023-08-12T07:26:28.398Z,3.00
2023-08-12T07:28:54.834Z,3.55
2023-08-12T07:31:21.362Z,4.28
2023-08-12T07:33:47.950Z,4.97
2023-08-12T07:36:14.583Z,3.70
2023-08-12T07:38:41.195Z,4.13
2023-08-12T07:41:07.574Z,4.10
2023-08-12T07:43:34.237Z,5.05
2023-08-12T07:46:09.395Z,3.63
2023-08-12T07:48:36.869Z,4.13
2023-08-12T07:51:03.488Z,3.70
2023-08-12T07:53:29.905Z,3.28
2023-08-12T07:55:56.314Z,5.18
2023-08-12T07:58:22.809Z,4.55
2023-08-12T08:00:50.280Z,4.88
2023-08-12T08:03:16.932Z,3.70
2023-08-12T08:05:43.398Z,4.45
2023-08-12T08:08:09.952Z,3.92
2023-08-12T08:10:37.401Z,4.22
2023-08-12T08:13:05.938Z,4.57
2023-08-12T08:15:32.347Z,4.03
2023-08-12T08:17:59.544Z,3.50
2023-08-12T08:20:28.632Z,4.03
2023-08-12T08:22:55.084Z,4.03
2023-08-12T08:25:24.039Z,4.22
2023-08-12T08:27:50.973Z,3.55
2023-08-12T08:30:17.687Z,3.55
2023-08-12T08:32:44.140Z,3.72
2023-08-12T08:35:10.705Z,3.58
2023-08-12T08:37:38.235Z,3.38
2023-08-12T08:40:04.694Z,3.72
2023-08-12T08:42:32.171Z,3.40
2023-08-12T08:44:58.756Z,2.90
2023-08-12T08:47:25.355Z,3.15
2023-08-12T08:49:51.778Z,3.08
2023-08-12T08:52:18.292Z,2.83
2023-08-12T08:54:46.583Z,3.22
2023-08-12T08:57:16.752Z,3.10
2023-08-12T08:59:58.185Z,3.33
2023-08-12T09:02:25.246Z,3.63
2023-08-12T09:04:51.784Z,3.40
2023-08-12T09:07:19.250Z,2.78
2023-08-12T09:09:45.659Z,2.83
2023-08-12T09:12:12.665Z,2.97
2023-08-12T09:14:39.342Z,3.42
2023-08-12T09:17:06.041Z,3.70
2023-08-12T09:19:32.747Z,3.55
2023-08-12T09:22:01.342Z,3.70
2023-08-12T09:24:28.011Z,3.45
2023-08-12T09:26:54.486Z,3.42
2023-08-12T09:29:20.975Z,3.65
2023-08-12T09:31:48.205Z,3.85
2023-08-12T09:34:14.768Z,4.10
2023-08-12T09:36:41.227Z,3.67
2023-08-12T09:39:08.060Z,3.55
2023-08-12T09:41:38.720Z,3.65
2023-08-12T09:44:06.114Z,3.40
2023-08-12T09:46:32.564Z,3.45
2023-08-12T09:48:59.037Z,3.08
2023-08-12T09:51:25.551Z,2.95
2023-08-12T09:53:55.262Z,3.30
2023-08-12T09:56:21.778Z,3.40
2023-08-12T09:58:53.613Z,3.10
2023-08-12T10:01:20.487Z,2.83
2023-08-12T10:03:48.088Z,2.90
2023-08-12T10:06:17.173Z,2.80
2023-08-12T10:08:43.733Z,2.65
2023-08-12T10:11:13.349Z,2.90
2023-08-12T10:13:40.395Z,2.97
2023-08-12T10:16:07.863Z,3.25
2023-08-12T10:18:37.160Z,3.10
2023-08-12T10:21:03.657Z,2.72
2023-08-12T10:23:30.099Z,2.70
2023-08-12T10:25:56.546Z,2.80
2023-08-12T10:28:24.485Z,2.70
2023-08-12T10:30:51.451Z,2.92
2023-08-12T10:33:18.563Z,2.83
2023-08-12T10:35:45.055Z,2.50
2023-08-12T10:38:11.572Z,2.65
2023-08-12T10:40:38.074Z,2.38
2023-08-12T10:43:04.552Z,2.30
2023-08-12T10:45:31.585Z,2.50
2023-08-12T10:47:58.258Z,2.40
2023-08-12T10:50:24.901Z,2.25
2023-08-12T10:52:54.123Z,2.28
2023-08-12T10:55:20.606Z,2.20
2023-08-12T10:57:52.452Z,2.10
2023-08-12T11:00:20.798Z,2.05
2023-08-12T11:02:48.161Z,1.90
2023-08-12T11:05:14.807Z,2.00
2023-08-12T11:07:43.387Z,2.03
2023-08-12T11:10:09.959Z,2.00
2023-08-12T11:12:36.405Z,1.83
2023-08-12T11:15:02.812Z,2.15
2023-08-12T11:17:29.988Z,1.80
2023-08-12T11:19:57.163Z,1.88
2023-08-12T11:22:26.208Z,2.00
2023-08-12T11:24:52.655Z,2.33
2023-08-12T11:27:19.191Z,2.30
2023-08-12T11:29:45.796Z,2.00
2023-08-12T11:32:12.854Z,2.03
2023-08-12T11:34:39.713Z,2.00
2023-08-12T11:37:06.912Z,1.75
2023-08-12T11:39:33.509Z,2.22
2023-08-12T11:42:00.317Z,2.10
2023-08-12T11:44:26.726Z,1.90
2023-08-12T11:46:54.999Z,1.92
2023-08-12T11:49:23.901Z,2.00
2023-08-12T11:51:50.861Z,1.70
2023-08-12T11:54:18.604Z,1.90
2023-08-12T11:56:45.915Z,2.00
2023-08-12T11:59:12.401Z,2.55
2023-08-12T12:01:39.017Z,1.83
2023-08-12T12:04:05.567Z,1.98
2023-08-12T12:06:32.084Z,1.90
2023-08-12T12:08:59.885Z,1.83
2023-08-12T12:11:26.612Z,2.10
2023-08-12T12:13:53.306Z,1.90
2023-08-12T12:16:19.827Z,1.85
2023-08-12T12:18:46.288Z,1.90
2023-08-12T12:21:12.964Z,1.77
2023-08-12T12:23:39.522Z,1.55
2023-08-12T12:26:05.966Z,1.60
2023-08-12T12:28:32.478Z,1.65
2023-08-12T12:30:59.058Z,1.70
2023-08-12T12:33:25.832Z,1.67
2023-08-12T12:35:58.642Z,1.92
2023-08-12T12:38:27.070Z,2.10
2023-08-12T12:40:53.832Z,1.67
2023-08-12T12:43:20.699Z,2.00
2023-08-12T12:45:47.251Z,1.60
2023-08-12T12:48:13.803Z,2.63
2023-08-12T12:50:40.257Z,2.53
2023-08-12T12:53:06.709Z,4.38
2023-08-12T12:55:33.293Z,3.20
2023-08-12T12:57:59.688Z,3.45
2023-08-12T13:00:26.176Z,2.03
2023-08-12T13:02:53.222Z,2.10
2023-08-12T13:05:21.788Z,2.30
2023-08-12T13:07:48.210Z,1.55
2023-08-12T13:10:14.715Z,1.85
2023-08-12T13:12:42.497Z,1.55
2023-08-12T13:15:09.478Z,1.60
2023-08-12T13:17:35.971Z,1.75
2023-08-12T13:20:02.594Z,1.95
2023-08-12T13:22:28.997Z,1.90
2023-08-12T13:24:55.675Z,1.75
2023-08-12T13:27:22.817Z,1.70
2023-08-12T13:29:50.305Z,1.55
2023-08-12T13:32:16.899Z,1.75
2023-08-12T13:34:43.295Z,2.00
2023-08-12T13:37:10.230Z,1.40
2023-08-12T13:39:36.609Z,1.52
2023-08-12T13:42:03.321Z,1.52
2023-08-12T13:44:29.745Z,1.40
2023-08-12T13:46:56.221Z,1.30
2023-08-12T13:49:23.031Z,1.30
2023-08-12T13:51:50.523Z,1.67
2023-08-12T13:54:17.097Z,1.52
2023-08-12T13:56:43.646Z,1.30
2023-08-12T13:59:10.073Z,1.27
2023-08-12T14:01:36.698Z,1.27
2023-08-12T14:04:04.189Z,1.80
2023-08-12T14:06:31.083Z,1.80
2023-08-12T14:08:58.014Z,1.40
2023-08-12T14:11:24.646Z,1.52
2023-08-12T14:13:51.538Z,1.50
2023-08-12T14:16:18.009Z,1.67
2023-08-12T14:18:44.948Z,1.45
2023-08-12T14:21:11.406Z,1.27
2023-08-12T14:23:38.273Z,1.20
2023-08-12T14:26:04.761Z,1.17
2023-08-12T14:28:31.338Z,1.38
2023-08-12T14:30:58.201Z,1.65
2023-08-12T14:33:24.772Z,1.40
2023-08-12T14:35:51.302Z,1.40
2023-08-12T14:38:17.672Z,1.50
2023-08-12T14:40:44.770Z,1.30
2023-08-12T14:43:11.268Z,1.20
2023-08-12T14:45:37.686Z,1.38
2023-08-12T14:48:04.174Z,1.55
2023-08-12T14:50:32.951Z,1.30
2023-08-12T14:52:59.657Z,1.40
2023-08-12T14:55:26.188Z,1.55
2023-08-12T14:57:52.843Z,1.60
2023-08-12T15:00:19.473Z,1.55
2023-08-12T15:02:45.962Z,1.40
2023-08-12T15:05:12.596Z,1.52
2023-08-12T15:07:39.023Z,2.00
2023-08-12T15:10:06.019Z,1.70
2023-08-12T15:12:32.632Z,1.40
2023-08-12T15:14:59.118Z,1.42
2023-08-12T15:17:25.730Z,1.50
2023-08-12T15:19:52.521Z,1.65
2023-08-12T15:22:18.930Z,1.40
2023-08-12T15:24:46.362Z,1.40
2023-08-12T15:27:13.166Z,1.50
2023-08-12T15:29:39.939Z,1.52
2023-08-12T15:32:06.495Z,1.50
2023-08-12T15:34:33.136Z,1.67
2023-08-12T15:36:59.604Z,1.30
2023-08-12T15:39:26.097Z,1.30
2023-08-12T15:41:52.484Z,1.85
2023-08-12T15:44:18.926Z,1.70
2023-08-12T15:46:45.331Z,1.50
2023-08-12T15:49:11.943Z,1.90
2023-08-12T15:51:38.691Z,1.60
2023-08-12T15:54:05.120Z,1.60
2023-08-12T15:56:32.383Z,1.52
2023-08-12T15:59:00.822Z,2.00
2023-08-12T16:01:27.285Z,1.42
2023-08-12T16:03:54.338Z,1.38
2023-08-12T16:06:20.871Z,1.42
2023-08-12T16:08:56.795Z,1.50
2023-08-12T16:11:32.131Z,1.50
2023-08-12T16:13:58.558Z,1.40
2023-08-12T16:16:27.570Z,1.50
2023-08-12T16:18:54.086Z,1.58
2023-08-12T16:21:20.569Z,1.85
2023-08-12T16:23:47.104Z,1.58
2023-08-12T16:26:13.548Z,1.40
2023-08-12T16:28:39.962Z,1.90
2023-08-12T16:31:06.727Z,2.50
2023-08-12T16:33:33.353Z,2.00
2023-08-12T16:35:59.766Z,1.85
2023-08-12T16:38:26.212Z,1.85
2023-08-12T16:40:52.649Z,1.63
2023-08-12T16:43:19.104Z,1.50
2023-08-12T16:45:45.632Z,1.85
2023-08-12T16:48:12.572Z,2.15
2023-08-12T16:50:39.031Z,2.10
2023-08-12T16:53:05.551Z,2.00
2023-08-12T16:55:31.982Z,2.03
2023-08-12T16:57:58.421Z,2.55
2023-08-12T17:00:24.892Z,1.80
2023-08-12T17:02:51.649Z,2.08
2023-08-12T17:05:18.111Z,2.03
2023-08-12T17:07:44.666Z,2.00
2023-08-12T17:10:11.153Z,2.15
2023-08-12T17:12:37.584Z,2.20
2023-08-12T17:15:04.233Z,1.92
2023-08-12T17:17:30.761Z,1.85
2023-08-12T17:19:57.217Z,2.00
2023-08-12T17:22:25.370Z,2.03
2023-08-12T17:24:52.300Z,2.35
2023-08-12T17:27:18.713Z,2.10
2023-08-12T17:29:45.225Z,2.50
2023-08-12T17:32:11.946Z,1.95
2023-08-12T17:34:38.902Z,2.10
2023-08-12T17:37:05.682Z,2.20
2023-08-12T17:39:32.037Z,2.10
2023-08-12T17:41:58.484Z,2.30
2023-08-12T17:44:25.247Z,2.42
2023-08-12T17:46:51.764Z,2.35
2023-08-12T17:49:18.475Z,2.20
2023-08-12T17:51:44.921Z,2.25
2023-08-12T17:54:11.584Z,2.35
2023-08-12T17:56:38.386Z,1.80
2023-08-12T17:59:04.769Z,1.98
2023-08-12T18:01:31.223Z,2.15
2023-08-12T18:03:58.295Z,1.80
2023-08-12T18:06:24.932Z,2.10
2023-08-12T18:08:51.389Z,1.90
2023-08-12T18:11:18.105Z,2.78
2023-08-12T18:13:44.615Z,2.03
2023-08-12T18:16:11.106Z,2.05
2023-08-12T18:18:37.691Z,2.05
2023-08-12T18:21:06.514Z,2.22
2023-08-12T18:23:32.955Z,2.55
2023-08-12T18:26:01.753Z,2.10
2023-08-12T18:28:28.475Z,2.63
2023-08-12T18:30:55.122Z,2.20
2023-08-12T18:33:21.583Z,1.98
2023-08-12T18:35:48.601Z,2.17
2023-08-12T18:38:17.415Z,2.15
2023-08-12T18:40:43.914Z,2.28
2023-08-12T18:43:11.869Z,2.15
2023-08-12T18:45:38.876Z,2.50
2023-08-12T18:48:05.873Z,2.42
2023-08-12T18:50:34.197Z,1.80
2023-08-12T18:53:02.839Z,1.92
2023-08-12T18:55:30.277Z,3.35
2023-08-12T18:57:57.027Z,2.85
2023-08-12T19:00:23.778Z,2.10
2023-08-12T19:02:50.919Z,2.08
2023-08-12T19:05:17.771Z,2.60
2023-08-12T19:07:44.304Z,2.25
2023-08-12T19:10:10.976Z,2.28
2023-08-12T19:12:37.471Z,2.45
2023-08-12T19:15:03.989Z,2.92
2023-08-12T19:17:30.576Z,3.15
2023-08-12T19:19:57.328Z,2.50
2023-08-12T19:22:24.779Z,2.90
2023-08-12T19:24:51.806Z,2.60
2023-08-12T19:27:18.737Z,2.85
2023-08-12T19:29:45.728Z,2.10
2023-08-12T19:32:16.221Z,2.47
2023-08-12T19:34:44.156Z,2.33
2023-08-12T19:37:11.275Z,2.20
2023-08-12T19:39:38.566Z,2.22
2023-08-12T19:42:05.792Z,2.10
2023-08-12T19:44:35.908Z,2.50
2023-08-12T19:47:04.932Z,3.78
2023-08-12T19:49:32.273Z,3.13
2023-08-12T19:52:00.552Z,2.70
2023-08-12T19:54:27.685Z,2.80
2023-08-12T19:56:54.803Z,3.53
2023-08-12T19:59:23.035Z,2.47
2023-08-12T20:01:50.234Z,3.33
2023-08-12T20:04:21.703Z,3.78
2023-08-12T20:06:51.990Z,2.85
2023-08-12T20:09:20.126Z,2.90
2023-08-12T20:11:49.749Z,3.90
2023-08-12T20:14:16.837Z,2.90
2023-08-12T20:16:45.982Z,2.58
2023-08-12T20:19:15.448Z,2.75
2023-08-12T20:21:43.543Z,2.60
2023-08-12T20:24:12.897Z,2.45
2023-08-12T20:26:40.268Z,2.80
2023-08-12T20:29:07.542Z,2.85
2023-08-12T20:31:34.447Z,2.60
2023-08-12T20:34:02.385Z,3.08
2023-08-12T20:36:30.148Z,5.00
2023-08-12T20:39:02.618Z,6.13
2023-08-12T20:41:29.857Z,4.85
2023-08-12T20:43:58.916Z,4.28
2023-08-12T20:46:26.412Z,3.60
2023-08-12T20:48:53.795Z,3.15
2023-08-12T20:51:21.016Z,3.38
2023-08-12T20:53:48.125Z,2.90
2023-08-12T20:56:15.725Z,3.47
2023-08-12T20:58:42.802Z,3.30
2023-08-12T21:01:09.372Z,3.70
2023-08-12T21:03:35.885Z,2.85
2023-08-12T21:06:02.489Z,2.95
2023-08-12T21:08:29.615Z,3.35
2023-08-12T21:10:56.059Z,3.67
2023-08-12T21:13:22.652Z,3.67
2023-08-12T21:15:49.119Z,3.88
2023-08-12T21:18:15.563Z,3.40
2023-08-12T21:20:41.994Z,3.40
2023-08-12T21:23:10.140Z,3.47
2023-08-12T21:25:36.597Z,4.32
2023-08-12T21:28:03.080Z,4.05
2023-08-12T21:30:29.655Z,3.30
2023-08-12T21:32:56.252Z,3.45
2023-08-12T21:35:23.008Z,3.50
2023-08-12T21:37:50.602Z,3.10
2023-08-12T21:40:18.292Z,3.60
2023-08-12T21:42:44.775Z,4.00
2023-08-12T21:45:11.733Z,3.58
2023-08-12T21:47:38.230Z,3.25
2023-08-12T21:50:04.737Z,3.85
2023-08-12T21:52:31.131Z,3.25
2023-08-12T21:54:58.849Z,3.33
2023-08-12T21:57:25.273Z,3.53
2023-08-12T21:59:51.884Z,3.47
2023-08-12T22:02:19.856Z,3.92
2023-08-12T22:04:48.461Z,3.35
2023-08-12T22:07:14.860Z,3.47
2023-08-12T22:09:41.513Z,3.15
2023-08-12T22:12:08.517Z,3.20
2023-08-12T22:14:35.314Z,3.38
2023-08-12T22:17:01.894Z,3.00
2023-08-12T22:19:28.503Z,3.13
2023-08-12T22:21:59.787Z,3.05
2023-08-12T22:24:33.002Z,3.30
2023-08-12T22:26:59.499Z,3.53
2023-08-12T22:29:25.904Z,3.08
2023-08-12T22:31:52.418Z,3.05
2023-08-12T22:34:18.860Z,2.88
2023-08-12T22:36:45.439Z,2.95
2023-08-12T22:39:12.140Z,3.22
2023-08-12T22:41:38.521Z,3.00
2023-08-12T22:44:05.020Z,2.78
2023-08-12T22:46:31.982Z,3.50
2023-08-12T22:48:58.643Z,2.92
2023-08-12T22:51:25.069Z,3.53
2023-08-12T22:53:51.913Z,3.38
2023-08-12T22:56:18.859Z,3.42
2023-08-12T22:58:45.780Z,3.25
2023-08-12T23:01:12.553Z,3.40
2023-08-12T23:03:39.092Z,3.20
2023-08-12T23:06:05.818Z,3.00
2023-08-12T23:08:32.374Z,2.70
2023-08-12T23:11:01.379Z,3.35
2023-08-12T23:13:28.024Z,3.40
2023-08-12T23:15:54.543Z,3.00
2023-08-12T23:18:20.969Z,3.00
2023-08-12T23:20:47.777Z,3.20
2023-08-12T23:23:14.235Z,3.00
2023-08-12T23:25:40.970Z,2.88
2023-08-12T23:28:08.574Z,3.08
2023-08-12T23:30:35.287Z,2.75
2023-08-12T23:33:05.000Z,3.30
2023-08-12T23:35:31.541Z,3.30
2023-08-12T23:37:58.020Z,3.20
2023-08-12T23:40:24.778Z,2.80
2023-08-12T23:42:51.392Z,2.90
2023-08-12T23:45:17.962Z,3.30
2023-08-12T23:47:44.952Z,2.88
2023-08-12T23:50:14.273Z,3.30
2023-08-12T23:52:40.738Z,2.97
2023-08-12T23:55:07.830Z,3.47
2023-08-12T23:57:34.247Z,3.42
